Terminal Aerodrome Forecast
Issued by NWS

Home | Current Version | Previous Version | Text Only | Print | Product List | Glossary On
Versions: 1 2 3 4 5 6 7 8 9 10 11 12
000
FTUS45 KRIW 232325
TAFLND
TAF
KLND 232325Z 2400/2424 15007KT P6SM SCT070
     FM240100 24008KT P6SM SCT060
     FM241600 25012G18KT P6SM SCT080
     FM241900 25022G32KT P6SM VCTS SCT060 BKN080CB=

USA.gov is the U.S. government's official web portal to all federal, state and local government web resources and services.